Time;durP1;ratioP1;P1;durP2;ratioP2;P2;SDS_P1;SDS_P2;PMS_P1;PMS_P2;Temp;Humidity;BMP_temperature;BMP_pressure;BME280_temperature;BME280_humidity;BME280_pressure;Samples;Min_cycle;Max_cycle;Signal;HPM_P1;HPM_P2
2022/12/11 00:00:20;;;;;;;66.35;21.00;;;-1.10;99.90;;;;;;5005444;28;20097;-63
2022/12/11 00:02:46;;;;;;;61.83;21.15;;;-1.10;99.90;;;;;;5022129;28;20041;-63
2022/12/11 00:05:12;;;;;;;66.47;20.88;;;-1.10;99.90;;;;;;4979366;28;20076;-63
2022/12/11 00:07:38;;;;;;;53.88;19.40;;;-1.10;99.90;;;;;;5022032;28;20045;-63
2022/12/11 00:10:04;;;;;;;63.20;21.45;;;-1.10;99.90;;;;;;5026678;28;20148;-63
2022/12/11 00:12:30;;;;;;;63.65;20.98;;;-1.10;99.90;;;;;;5005562;28;20605;-64
2022/12/11 00:14:56;;;;;;;64.63;21.00;;;-1.10;99.90;;;;;;5022812;28;20045;-64
2022/12/11 00:17:22;;;;;;;65.28;22.30;;;-1.10;99.90;;;;;;5018810;28;20737;-63
2022/12/11 00:19:48;;;;;;;69.25;23.48;;;-1.10;99.90;;;;;;5018439;28;20083;-64
2022/12/11 00:22:14;;;;;;;80.38;24.90;;;-1.00;99.90;;;;;;5000110;28;20048;-64
2022/12/11 00:24:40;;;;;;;71.65;24.00;;;-1.00;99.90;;;;;;5018011;28;20518;-63
2022/12/11 00:27:06;;;;;;;66.18;22.23;;;-1.00;99.90;;;;;;5019377;28;20037;-64
2022/12/11 00:29:32;;;;;;;68.45;22.70;;;-1.00;99.90;;;;;;5019456;28;20492;-64
2022/12/11 00:31:58;;;;;;;69.38;22.20;;;-1.00;99.90;;;;;;5022152;28;20051;-64
2022/12/11 00:34:24;;;;;;;80.03;22.33;;;-0.90;99.90;;;;;;4986335;28;20049;-63
2022/12/11 00:36:50;;;;;;;63.63;21.00;;;-1.00;99.90;;;;;;5019506;28;20491;-63
2022/12/11 00:39:15;;;;;;;66.75;22.10;;;-1.00;99.90;;;;;;5024854;28;20080;-64
2022/12/11 00:41:41;;;;;;;61.35;20.30;;;-0.90;99.90;;;;;;5002859;28;20056;-64
2022/12/11 00:44:07;;;;;;;58.28;19.73;;;-0.90;99.90;;;;;;5018563;28;20080;-63
2022/12/11 00:46:33;;;;;;;60.28;19.67;;;-0.90;99.90;;;;;;5009131;28;20057;-63
2022/12/11 00:48:58;;;;;;;63.55;20.67;;;-0.90;99.90;;;;;;5022257;28;20050;-63
2022/12/11 00:51:24;;;;;;;59.63;19.48;;;-0.90;99.90;;;;;;5021446;28;20408;-63
2022/12/11 00:53:51;;;;;;;66.13;20.70;;;-0.90;99.90;;;;;;5023763;28;20056;-64
2022/12/11 00:56:21;;;;;;;61.28;20.20;;;-0.90;99.90;;;;;;5003793;28;20041;-64
2022/12/11 00:58:48;;;;;;;63.70;20.13;;;-0.60;99.90;;;;;;5009119;28;20150;-64
2022/12/11 01:01:18;;;;;;;69.47;20.73;;;-0.80;99.90;;;;;;5020475;28;20053;-63
2022/12/11 01:03:44;;;;;;;59.17;19.77;;;-0.80;99.90;;;;;;5019663;28;20052;-64
2022/12/11 01:06:23;;;;;;;61.50;20.67;;;-0.80;99.90;;;;;;5006210;28;20128;-63
2022/12/11 01:10:22;;;;;;;58.97;19.02;;;-0.80;99.90;;;;;;5023562;28;20492;-63
2022/12/11 01:11:38;;;;;;;62.15;20.17;;;-0.80;99.90;;;;;;5025488;28;20057;-64
2022/12/11 01:14:04;;;;;;;60.72;19.13;;;-0.80;99.90;;;;;;5018852;28;20060;-64
2022/12/11 01:16:30;;;;;;;58.28;19.73;;;-0.70;99.90;;;;;;5014376;28;20053;-63
2022/12/11 01:18:56;;;;;;;51.75;18.13;;;-0.80;99.90;;;;;;5021654;28;20059;-63
2022/12/11 01:21:22;;;;;;;55.22;19.42;;;-0.70;99.90;;;;;;5016028;28;23392;-64
2022/12/11 01:23:51;;;;;;;57.25;19.35;;;-0.70;99.90;;;;;;5022213;28;20080;-63
2022/12/11 01:26:17;;;;;;;56.00;19.35;;;-0.70;99.90;;;;;;5018512;28;20044;-63
2022/12/11 01:28:44;;;;;;;56.90;19.77;;;-0.70;99.90;;;;;;5017436;28;20068;-63
2022/12/11 01:31:14;;;;;;;54.75;18.92;;;-0.70;99.90;;;;;;5014235;28;20115;-64
2022/12/11 01:33:40;;;;;;;58.60;19.67;;;-0.70;99.90;;;;;;5016638;28;20051;-63
2022/12/11 01:36:15;;;;;;;59.25;18.83;;;-0.60;99.90;;;;;;5004074;28;20048;-64
2022/12/11 01:38:41;;;;;;;50.50;18.67;;;-0.60;99.90;;;;;;4999053;28;20045;-63
2022/12/11 01:41:07;;;;;;;56.63;19.60;;;-0.60;99.90;;;;;;5014964;28;20072;-63
2022/12/11 01:43:34;;;;;;;51.22;19.17;;;-0.60;99.90;;;;;;5021582;28;20122;-63
2022/12/11 01:45:59;;;;;;;51.17;18.55;;;-0.60;99.90;;;;;;5017124;28;20041;-63
2022/12/11 01:48:29;;;;;;;53.13;19.90;;;-0.60;99.90;;;;;;5023622;28;20248;-63
2022/12/11 01:51:01;;;;;;;52.22;19.63;;;-0.50;99.90;;;;;;5019863;28;20153;-64
2022/12/11 01:53:39;;;;;;;54.85;19.13;;;-0.50;99.90;;;;;;4992167;28;20057;-63
2022/12/11 01:56:07;;;;;;;61.90;20.65;;;-0.50;99.90;;;;;;5019903;28;20471;-64
2022/12/11 01:59:05;;;;;;;54.95;20.67;;;-0.50;99.90;;;;;;5037150;28;20132;-63
2022/12/11 02:01:59;;;;;;;56.30;19.52;;;-0.50;99.90;;;;;;5019481;28;20041;-64
2022/12/11 02:04:26;;;;;;;65.82;20.70;;;-0.50;99.90;;;;;;5019129;28;20177;-63
2022/12/11 02:06:53;;;;;;;61.35;21.08;;;-0.50;99.90;;;;;;5026223;28;20045;-63
2022/12/11 02:09:26;;;;;;;59.50;20.55;;;-0.50;99.90;;;;;;5034154;28;20136;-64
2022/12/11 02:12:08;;;;;;;72.35;21.70;;;-0.50;99.90;;;;;;5016371;28;20088;-63
2022/12/11 02:15:04;;;;;;;65.80;22.63;;;-0.50;99.90;;;;;;5020433;28;20118;-63
2022/12/11 02:17:49;;;;;;;68.00;21.33;;;-0.50;99.90;;;;;;5018022;28;20552;-63
2022/12/11 02:20:37;;;;;;;84.80;23.65;;;-0.40;99.90;;;;;;5006957;28;20169;-64
2022/12/11 02:23:29;;;;;;;67.85;23.27;;;-0.40;99.90;;;;;;5005169;28;20053;-64
2022/12/11 02:26:19;;;;;;;73.38;23.27;;;-0.50;99.90;;;;;;5022266;28;20491;-63
2022/12/11 02:29:19;;;;;;;69.55;21.77;;;-0.40;99.90;;;;;;5013672;28;20045;-63
2022/12/11 02:31:54;;;;;;;78.18;23.80;;;-0.40;99.90;;;;;;5004841;28;20119;-64
2022/12/11 02:34:34;;;;;;;80.63;23.08;;;-0.40;99.90;;;;;;5026500;28;20291;-64
2022/12/11 02:37:06;;;;;;;76.95;22.40;;;-0.40;99.90;;;;;;5026721;28;20091;-63
2022/12/11 02:39:37;;;;;;;75.55;24.27;;;-0.40;99.90;;;;;;5022933;28;20500;-63
2022/12/11 02:42:05;;;;;;;84.57;24.27;;;-0.40;99.90;;;;;;5018102;28;20040;-63
2022/12/11 02:44:33;;;;;;;79.32;23.95;;;-0.40;99.90;;;;;;5019192;28;20045;-64
2022/12/11 02:47:00;;;;;;;76.28;23.17;;;-0.40;99.90;;;;;;5020742;28;20061;-64
2022/12/11 02:49:27;;;;;;;83.38;24.73;;;-0.40;99.90;;;;;;5002537;28;20144;-64
2022/12/11 02:51:55;;;;;;;74.97;24.13;;;-0.40;99.90;;;;;;5016557;28;20063;-64
2022/12/11 02:54:29;;;;;;;88.20;24.52;;;-0.40;99.90;;;;;;5017397;28;20056;-63
2022/12/11 02:57:13;;;;;;;93.88;25.13;;;-0.40;99.90;;;;;;5016757;28;20123;-64
2022/12/11 02:59:41;;;;;;;84.32;24.38;;;-0.30;99.90;;;;;;5020205;28;20063;-63
2022/12/11 03:02:08;;;;;;;69.20;23.02;;;-0.40;99.90;;;;;;5019051;28;20080;-64
2022/12/11 03:04:36;;;;;;;90.32;24.88;;;-0.40;99.90;;;;;;5014930;28;20553;-63
2022/12/11 03:07:10;;;;;;;82.18;24.10;;;-0.30;99.90;;;;;;5015531;28;20041;-63
2022/12/11 03:09:41;;;;;;;79.50;24.17;;;-0.30;99.90;;;;;;5006546;28;20049;-63
2022/12/11 03:12:10;;;;;;;77.20;22.35;;;-0.30;99.90;;;;;;5020656;28;20084;-63
2022/12/11 03:14:39;;;;;;;75.95;22.92;;;-0.30;99.90;;;;;;5019466;28;20787;-64
2022/12/11 03:17:18;;;;;;;81.65;23.00;;;-0.30;99.90;;;;;;5014733;28;20057;-63
2022/12/11 03:19:51;;;;;;;84.05;23.45;;;-0.30;99.90;;;;;;5016511;28;20049;-64
2022/12/11 03:22:38;;;;;;;71.05;21.88;;;-0.30;99.90;;;;;;5004353;28;20176;-63
2022/12/11 03:25:11;;;;;;;83.80;23.42;;;-0.30;99.90;;;;;;5014826;28;20044;-63
2022/12/11 03:28:04;;;;;;;74.32;21.75;;;-0.20;99.90;;;;;;5010250;28;20145;-63
2022/12/11 03:30:32;;;;;;;;;;;-0.20;99.90;;;;;;5015459;28;20048;-63
2022/12/11 03:33:08;;;;;;;69.43;22.85;;;-0.20;99.90;;;;;;5020511;28;19921;-63
2022/12/11 03:35:41;;;;;;;69.03;22.20;;;-0.20;99.90;;;;;;5018265;28;20504;-63
2022/12/11 03:38:14;;;;;;;76.28;22.02;;;-0.20;99.90;;;;;;5008324;28;20056;-63
2022/12/11 03:40:44;;;;;;;76.57;23.58;;;-0.20;99.90;;;;;;5022187;28;20060;-63
2022/12/11 03:43:11;;;;;;;79.22;22.33;;;-0.20;99.90;;;;;;5003149;28;20053;-64
2022/12/11 03:45:38;;;;;;;87.55;22.88;;;-0.20;99.90;;;;;;5021728;28;20045;-63
2022/12/11 03:48:07;;;;;;;78.18;22.83;;;-0.20;99.90;;;;;;5028872;28;20064;-64
2022/12/11 03:50:33;;;;;;;84.95;24.25;;;-0.20;99.90;;;;;;5013255;28;20084;-63
2022/12/11 03:53:02;;;;;;;87.43;24.25;;;-0.20;99.90;;;;;;5016169;28;20160;-63
2022/12/11 03:55:29;;;;;;;79.75;23.58;;;-0.10;99.90;;;;;;5017798;28;20049;-63
2022/12/11 03:57:55;;;;;;;81.70;22.83;;;-0.20;99.90;;;;;;5035099;28;20053;-63
2022/12/11 04:00:22;;;;;;;77.25;23.02;;;-0.10;99.90;;;;;;5016781;28;20051;-63
2022/12/11 04:03:11;;;;;;;76.68;22.17;;;-0.10;99.90;;;;;;4997669;28;20967;-63
2022/12/11 04:05:34;;;;;;;84.00;22.17;;;-0.10;99.90;;;;;;5013277;28;21826;-63
2022/12/11 04:07:59;;;;;;;79.47;23.73;;;-0.10;99.90;;;;;;5002635;28;20050;-63
2022/12/11 04:10:26;;;;;;;80.65;23.20;;;-0.10;99.90;;;;;;5018091;28;20803;-63
2022/12/11 04:12:52;;;;;;;76.68;22.65;;;-0.10;99.90;;;;;;5019513;28;20051;-63
2022/12/11 04:15:17;;;;;;;79.22;21.30;;;-0.10;99.90;;;;;;5018751;28;20040;-64
2022/12/11 04:26:10;;;;;;;64.80;21.33;;;-0.10;99.90;;;;;;5017601;28;20637;-63
2022/12/11 04:28:37;;;;;;;71.65;21.35;;;-0.10;99.90;;;;;;5021072;28;20056;-63
2022/12/11 04:31:03;;;;;;;71.22;22.65;;;-0.10;99.90;;;;;;5015957;28;20068;-64
2022/12/11 04:33:29;;;;;;;71.20;20.95;;;-0.10;99.90;;;;;;5026505;28;20098;-63
2022/12/11 04:36:00;;;;;;;66.20;21.17;;;0.00;99.90;;;;;;5024394;28;20048;-63
2022/12/11 04:38:26;;;;;;;63.55;20.73;;;-0.10;99.90;;;;;;5019802;28;20041;-66
2022/12/11 04:41:00;;;;;;;69.90;20.85;;;-0.10;99.90;;;;;;5019136;28;20042;-63
2022/12/11 04:43:26;;;;;;;66.45;20.38;;;0.00;99.90;;;;;;5021464;28;20041;-64
2022/12/11 04:46:10;;;;;;;70.88;21.15;;;0.00;99.90;;;;;;5001440;28;20053;-64
2022/12/11 04:48:37;;;;;;;69.60;20.20;;;0.00;99.90;;;;;;5026737;28;20091;-63
2022/12/11 04:51:04;;;;;;;62.22;20.83;;;0.00;99.90;;;;;;4992330;28;20049;-63
2022/12/11 04:53:31;;;;;;;63.72;20.10;;;0.00;99.90;;;;;;5019081;28;20110;-64
2022/12/11 04:55:57;;;;;;;66.57;21.50;;;0.00;99.90;;;;;;5026892;28;20139;-63
2022/12/11 04:58:23;;;;;;;61.70;20.42;;;0.00;99.90;;;;;;5018702;28;20057;-63
2022/12/11 05:00:49;;;;;;;68.10;20.65;;;0.00;99.90;;;;;;5020384;28;20049;-63
2022/12/11 05:03:15;;;;;;;60.20;20.17;;;0.00;99.90;;;;;;5010575;28;20100;-63
2022/12/11 05:05:50;;;;;;;59.13;19.52;;;0.00;99.90;;;;;;5018369;28;20053;-63
2022/12/11 05:08:17;;;;;;;66.63;20.67;;;0.00;99.90;;;;;;5005453;28;20097;-63
2022/12/11 05:10:43;;;;;;;66.05;20.13;;;0.00;99.90;;;;;;5017746;28;20060;-63
2022/12/11 05:13:09;;;;;;;65.97;20.50;;;0.00;99.90;;;;;;5008692;28;20045;-63
2022/12/11 05:15:39;;;;;;;59.22;20.08;;;0.10;99.90;;;;;;5020215;28;20818;-63
2022/12/11 05:18:05;;;;;;;60.05;18.67;;;0.10;99.90;;;;;;5021927;28;20088;-64
2022/12/11 05:20:30;;;;;;;65.35;20.20;;;0.10;99.90;;;;;;5024393;28;20050;-63
2022/12/11 05:22:56;;;;;;;62.97;20.75;;;0.10;99.90;;;;;;5020987;28;20039;-63
2022/12/11 05:25:22;;;;;;;60.83;19.85;;;0.10;99.90;;;;;;5019668;28;20152;-63
2022/12/11 05:27:48;;;;;;;67.07;21.42;;;0.10;99.90;;;;;;5022519;28;20114;-63
2022/12/11 05:30:14;;;;;;;64.75;20.02;;;0.10;99.90;;;;;;5018896;28;20048;-63
2022/12/11 05:32:39;;;;;;;65.53;20.05;;;0.10;99.90;;;;;;5020747;28;20742;-63
2022/12/11 05:35:05;;;;;;;70.43;21.58;;;0.10;99.90;;;;;;5024364;28;20130;-64
2022/12/11 05:37:33;;;;;;;64.97;20.48;;;0.10;99.90;;;;;;5015270;28;20057;-63
2022/12/11 05:39:59;;;;;;;58.97;20.10;;;0.10;99.90;;;;;;5003023;28;20487;-63
2022/12/11 05:42:24;;;;;;;62.85;21.15;;;0.10;99.90;;;;;;5008082;28;20041;-63
2022/12/11 05:44:50;;;;;;;63.63;20.48;;;0.10;99.90;;;;;;5002437;28;20428;-64
2022/12/11 05:47:19;;;;;;;62.15;19.92;;;0.10;99.90;;;;;;5019137;28;20146;-63
2022/12/11 05:49:46;;;;;;;67.88;20.73;;;0.20;99.90;;;;;;4977597;28;20049;-63
2022/12/11 05:52:12;;;;;;;65.43;20.92;;;0.10;99.90;;;;;;5008077;28;20132;-63
2022/12/11 05:54:37;;;;;;;65.43;19.80;;;0.10;99.90;;;;;;5022513;28;20055;-64
2022/12/11 05:57:03;;;;;;;72.07;21.67;;;0.10;99.90;;;;;;5023106;28;20549;-63
2022/12/11 05:59:29;;;;;;;66.63;20.20;;;0.20;99.90;;;;;;5003228;28;20049;-63
2022/12/11 06:01:55;;;;;;;66.95;21.52;;;0.10;99.90;;;;;;5020823;28;20041;-63
2022/12/11 06:04:20;;;;;;;65.65;21.58;;;0.10;99.90;;;;;;5018075;28;20040;-63
2022/12/11 06:06:46;;;;;;;63.58;21.88;;;0.10;99.90;;;;;;5004596;28;20053;-64
2022/12/11 06:09:14;;;;;;;66.88;20.75;;;0.10;99.90;;;;;;5020177;28;20079;-63
2022/12/11 06:11:40;;;;;;;67.07;20.80;;;0.10;99.90;;;;;;5020077;28;20069;-63
2022/12/11 06:14:06;;;;;;;72.88;22.27;;;0.10;99.90;;;;;;5017348;28;20045;-64
2022/12/11 06:16:32;;;;;;;59.83;19.80;;;0.10;99.90;;;;;;5020403;28;20059;-63
2022/12/11 06:18:58;;;;;;;58.70;20.17;;;0.10;99.90;;;;;;5039124;28;20053;-63
2022/12/11 06:21:27;;;;;;;66.68;21.45;;;0.10;99.90;;;;;;4989515;28;20131;-63
2022/12/11 06:23:54;;;;;;;70.63;21.35;;;0.20;99.90;;;;;;5020679;28;20877;-63
2022/12/11 06:26:20;;;;;;;65.28;20.67;;;0.10;99.90;;;;;;5016622;28;20078;-63
2022/12/11 06:28:47;;;;;;;68.00;20.48;;;0.20;99.90;;;;;;5009049;28;20041;-63
2022/12/11 06:31:13;;;;;;;56.35;20.10;;;0.20;99.90;;;;;;5019848;28;20146;-63
2022/12/11 06:33:39;;;;;;;62.00;21.70;;;0.20;99.90;;;;;;5002067;28;20119;-63
2022/12/11 06:36:08;;;;;;;60.45;20.48;;;0.20;99.90;;;;;;5017648;28;20060;-63
2022/12/11 06:38:34;;;;;;;66.70;20.45;;;0.20;99.90;;;;;;5020222;28;20049;-63
2022/12/11 06:41:03;;;;;;;55.60;19.88;;;0.20;99.90;;;;;;5015647;28;20049;-63
2022/12/11 06:43:30;;;;;;;68.45;20.10;;;0.20;99.90;;;;;;5018124;28;20059;-63
2022/12/11 06:45:56;;;;;;;55.33;19.45;;;0.20;99.90;;;;;;5008182;28;20099;-63
2022/12/11 06:48:22;;;;;;;60.17;20.55;;;0.20;99.90;;;;;;5012941;28;20056;-63
2022/12/11 06:50:48;;;;;;;60.72;20.85;;;0.20;99.90;;;;;;5011896;28;20053;-63
2022/12/11 06:53:14;;;;;;;61.05;21.08;;;0.20;99.90;;;;;;5007931;28;20096;-63
2022/12/11 06:55:41;;;;;;;58.42;19.73;;;0.20;99.90;;;;;;5024144;28;20059;-63
2022/12/11 06:58:08;;;;;;;54.28;20.15;;;0.20;99.90;;;;;;5025837;28;20051;-63
2022/12/11 07:00:35;;;;;;;61.33;19.85;;;0.20;99.90;;;;;;5030181;28;20129;-63
2022/12/11 07:03:01;;;;;;;58.65;20.20;;;0.20;99.90;;;;;;5024211;28;24058;-63
2022/12/11 07:05:27;;;;;;;56.42;19.33;;;0.20;99.90;;;;;;5026492;28;20052;-63
2022/12/11 07:07:53;;;;;;;56.92;19.33;;;0.20;99.90;;;;;;5024012;28;20076;-63
2022/12/11 07:10:20;;;;;;;55.95;18.77;;;0.20;99.90;;;;;;5011172;28;20053;-63
2022/12/11 07:12:46;;;;;;;54.72;19.17;;;0.20;99.90;;;;;;5025948;28;20053;-63
2022/12/11 07:15:11;;;;;;;58.58;17.48;;;0.20;99.90;;;;;;5016942;28;20084;-63
2022/12/11 07:17:37;;;;;;;59.38;20.17;;;0.20;99.90;;;;;;5005458;28;20376;-63
2022/12/11 07:20:03;;;;;;;63.20;20.05;;;0.20;99.90;;;;;;5024713;28;20468;-63
2022/12/11 07:22:29;;;;;;;59.38;19.75;;;0.20;99.90;;;;;;5024512;28;20056;-63
2022/12/11 07:24:55;;;;;;;62.80;19.50;;;0.20;99.90;;;;;;5025316;28;20056;-63
2022/12/11 07:27:21;;;;;;;66.03;19.90;;;0.20;99.90;;;;;;5021472;28;20098;-63
2022/12/11 07:29:49;;;;;;;59.97;20.25;;;0.30;99.90;;;;;;5022693;28;20622;-63
2022/12/11 07:32:15;;;;;;;59.85;19.88;;;0.20;99.90;;;;;;5006700;28;20067;-62
2022/12/11 07:34:40;;;;;;;58.70;19.77;;;0.20;99.90;;;;;;5000105;28;20045;-63
2022/12/11 07:37:06;;;;;;;55.08;19.42;;;0.20;99.90;;;;;;5029127;28;20063;-63
2022/12/11 07:39:32;;;;;;;61.63;19.70;;;0.20;99.90;;;;;;5032559;28;20049;-63
2022/12/11 07:41:58;;;;;;;69.47;20.50;;;0.20;99.90;;;;;;5026964;28;20119;-62
2022/12/11 07:44:23;;;;;;;59.80;20.00;;;0.20;99.90;;;;;;5026169;28;20079;-63
2022/12/11 07:46:49;;;;;;;59.50;19.70;;;0.20;99.90;;;;;;5023263;28;20054;-63
2022/12/11 07:49:15;;;;;;;69.28;21.50;;;0.20;99.90;;;;;;5034542;28;20551;-63
2022/12/11 07:51:41;;;;;;;60.75;19.88;;;0.20;99.90;;;;;;5010450;28;20058;-63
2022/12/11 07:54:13;;;;;;;58.90;19.48;;;0.20;99.90;;;;;;5009437;28;20053;-63
2022/12/11 07:56:39;;;;;;;57.17;20.27;;;0.20;99.90;;;;;;5036536;28;20057;-63
2022/12/11 07:59:05;;;;;;;55.78;18.88;;;0.20;99.90;;;;;;5012292;28;20304;-63
2022/12/11 08:01:36;;;;;;;53.58;18.77;;;0.30;99.90;;;;;;5019190;28;20132;-63
2022/12/11 08:04:04;;;;;;;59.00;20.35;;;0.30;99.90;;;;;;5025895;28;20400;-63
2022/12/11 08:06:33;;;;;;;59.70;18.80;;;0.30;99.90;;;;;;5031465;28;20491;-63
2022/12/11 08:09:00;;;;;;;59.55;19.58;;;0.30;99.90;;;;;;5025603;28;20079;-63
2022/12/11 08:11:27;;;;;;;55.47;19.35;;;0.30;99.90;;;;;;5026484;28;20049;-62
2022/12/11 08:13:53;;;;;;;55.78;18.85;;;0.30;99.90;;;;;;5011453;28;20935;-63
2022/12/11 08:16:20;;;;;;;58.10;18.55;;;0.30;99.90;;;;;;5027287;28;20480;-63
2022/12/11 08:18:47;;;;;;;56.80;19.45;;;0.30;99.90;;;;;;5028858;28;20049;-62
2022/12/11 08:21:21;;;;;;;61.15;18.55;;;0.30;99.90;;;;;;5031308;28;20156;-63
2022/12/11 08:23:48;;;;;;;62.60;20.08;;;0.30;99.90;;;;;;5029007;28;20048;-63
2022/12/11 08:26:16;;;;;;;57.75;19.52;;;0.30;99.90;;;;;;5011069;28;20122;-62
2022/12/11 08:28:42;;;;;;;54.83;18.67;;;0.30;99.90;;;;;;5038379;28;20132;-63
2022/12/11 08:31:09;;;;;;;57.58;19.70;;;0.30;99.90;;;;;;5014151;28;20049;-63
2022/12/11 08:33:36;;;;;;;58.83;19.65;;;0.30;99.90;;;;;;5030632;28;20167;-63
2022/12/11 08:36:07;;;;;;;55.67;19.88;;;0.30;99.90;;;;;;5030508;28;20925;-63
2022/12/11 08:38:34;;;;;;;63.47;20.23;;;0.40;99.90;;;;;;5030254;28;20053;-64
2022/12/11 08:41:11;;;;;;;58.15;19.45;;;0.40;99.90;;;;;;5026844;28;20179;-63
2022/12/11 08:43:37;;;;;;;59.08;20.13;;;0.40;99.90;;;;;;5039881;28;20048;-63
2022/12/11 08:46:03;;;;;;;62.88;20.48;;;0.30;99.90;;;;;;5029759;28;20487;-63
2022/12/11 08:48:29;;;;;;;59.08;19.88;;;0.40;99.90;;;;;;5031360;28;20797;-63
2022/12/11 08:51:00;;;;;;;63.50;21.25;;;0.40;99.90;;;;;;5032158;28;20048;-63
2022/12/11 08:53:27;;;;;;;65.60;20.15;;;0.40;99.90;;;;;;5032196;28;20045;-63
2022/12/11 08:55:53;;;;;;;61.38;20.88;;;0.40;99.90;;;;;;5027769;28;20072;-63
2022/12/11 08:58:18;;;;;;;62.58;20.10;;;0.40;99.90;;;;;;5048798;28;20049;-63
2022/12/11 09:00:44;;;;;;;76.18;21.08;;;0.40;99.90;;;;;;5024011;28;20156;-63
2022/12/11 09:03:10;;;;;;;56.65;20.25;;;0.40;99.90;;;;;;5032805;28;20045;-63
2022/12/11 09:05:37;;;;;;;67.82;21.00;;;0.40;99.90;;;;;;5031467;28;20045;-63
2022/12/11 09:08:03;;;;;;;69.22;21.20;;;0.40;99.90;;;;;;5034441;28;20064;-63
2022/12/11 09:10:29;;;;;;;67.82;20.80;;;0.40;99.90;;;;;;5027580;28;20065;-63
2022/12/11 09:12:54;;;;;;;63.72;21.02;;;0.40;99.90;;;;;;5019086;28;20131;-63
2022/12/11 09:15:20;;;;;;;72.90;22.20;;;0.40;99.90;;;;;;5010582;28;20041;-63
2022/12/11 09:17:46;;;;;;;66.10;22.52;;;0.40;99.90;;;;;;5011885;28;20140;-63
2022/12/11 09:20:12;;;;;;;71.93;21.83;;;0.50;99.90;;;;;;5007470;28;20049;-63
2022/12/11 09:22:38;;;;;;;63.40;21.25;;;0.50;99.90;;;;;;4991147;28;20072;-63
2022/12/11 09:25:04;;;;;;;69.50;22.45;;;0.50;99.90;;;;;;5027473;28;20048;-63
2022/12/11 09:27:30;;;;;;;76.90;21.33;;;0.50;99.90;;;;;;5027330;28;20568;-63
2022/12/11 09:29:56;;;;;;;60.88;21.38;;;0.50;99.90;;;;;;5017101;28;20061;-62
2022/12/11 09:32:22;;;;;;;70.72;22.73;;;0.50;99.90;;;;;;5024740;28;20122;-63
2022/12/11 09:34:50;;;;;;;73.25;23.00;;;0.50;99.90;;;;;;5026606;28;20052;-63
2022/12/11 09:37:16;;;;;;;75.22;23.02;;;0.50;99.90;;;;;;5034856;28;20193;-63
2022/12/11 09:39:41;;;;;;;73.18;22.95;;;0.50;99.90;;;;;;5015487;28;20048;-63
2022/12/11 09:42:30;;;;;;;79.45;23.77;;;0.50;99.90;;;;;;5023830;28;20053;-63
2022/12/11 09:45:02;;;;;;;70.00;22.85;;;0.50;99.90;;;;;;5032257;28;20061;-63
2022/12/11 09:47:35;;;;;;;68.53;23.10;;;0.50;99.90;;;;;;5026916;28;20487;-63
2022/12/11 09:50:18;;;;;;;69.00;23.63;;;0.50;99.90;;;;;;5029024;28;20082;-63
2022/12/11 09:52:52;;;;;;;66.88;22.20;;;0.60;99.90;;;;;;5026955;28;20108;-63
2022/12/11 09:55:23;;;;;;;62.53;21.88;;;0.50;99.90;;;;;;5015974;28;20056;-64
2022/12/11 09:58:07;;;;;;;72.65;21.25;;;0.60;99.90;;;;;;5034311;28;20056;-63
2022/12/11 10:00:44;;;;;;;72.43;22.38;;;0.60;99.90;;;;;;5021216;28;20041;-63
2022/12/11 10:03:56;;;;;;;64.18;22.48;;;0.50;99.90;;;;;;5026966;28;20576;-63
2022/12/11 10:06:29;;;;;;;76.03;22.73;;;0.60;99.90;;;;;;5025791;28;20083;-63
2022/12/11 10:09:34;;;;;;;69.00;22.95;;;0.70;99.90;;;;;;5024136;28;20110;-64
2022/12/11 10:12:29;;;;;;;74.57;22.75;;;0.70;99.90;;;;;;5013881;28;20059;-63
2022/12/11 10:15:13;;;;;;;69.55;23.83;;;0.70;99.90;;;;;;5012295;28;20049;-64
2022/12/11 10:17:40;;;;;;;66.65;23.30;;;0.70;99.90;;;;;;5012347;28;20060;-63
2022/12/11 10:20:35;;;;;;;67.53;22.10;;;0.70;99.90;;;;;;5033941;28;20684;-64
2022/12/11 10:23:04;;;;;;;65.25;23.63;;;0.70;99.90;;;;;;5027434;28;20061;-63
2022/12/11 10:25:40;;;;;;;69.35;23.02;;;0.70;99.90;;;;;;5019704;28;20100;-63
2022/12/11 10:28:15;;;;;;;71.25;22.23;;;0.70;99.90;;;;;;5026809;28;20484;-63
2022/12/11 10:31:12;;;;;;;66.60;23.05;;;0.70;99.90;;;;;;5033935;28;20115;-64
2022/12/11 10:33:38;;;;;;;71.75;23.40;;;0.80;99.90;;;;;;5029014;28;20045;-63
2022/12/11 10:36:06;;;;;;;73.43;23.20;;;0.80;99.90;;;;;;5028449;28;20048;-64
2022/12/11 10:38:37;;;;;;;70.03;23.35;;;0.80;99.90;;;;;;5026820;28;20052;-64
2022/12/11 10:41:31;;;;;;;62.50;22.83;;;0.80;99.90;;;;;;5010064;28;20950;-64
2022/12/11 10:43:57;;;;;;;66.65;23.05;;;0.80;99.90;;;;;;5013394;28;20052;-64
2022/12/11 10:46:28;;;;;;;71.35;22.48;;;0.90;99.90;;;;;;5026047;28;20052;-63
2022/12/11 10:48:56;;;;;;;67.93;23.55;;;0.90;99.90;;;;;;5003071;28;20163;-63
2022/12/11 10:51:34;;;;;;;65.53;23.45;;;0.90;99.90;;;;;;5036122;28;20418;-63
2022/12/11 10:54:16;;;;;;;76.82;24.08;;;0.90;99.90;;;;;;5012334;28;20071;-63
2022/12/11 10:56:45;;;;;;;74.40;23.25;;;0.90;99.90;;;;;;5023622;28;20048;-63
2022/12/11 10:59:23;;;;;;;69.95;23.42;;;0.90;99.90;;;;;;5032078;28;20048;-63
2022/12/11 11:01:49;;;;;;;70.85;23.60;;;0.90;99.90;;;;;;5031686;28;20083;-63
2022/12/11 11:04:22;;;;;;;64.78;23.13;;;0.90;99.90;;;;;;5021725;28;20036;-63
2022/12/11 11:06:59;;;;;;;78.10;23.98;;;0.90;99.90;;;;;;5036383;28;20076;-63
2022/12/11 11:09:34;;;;;;;70.53;24.48;;;0.90;99.90;;;;;;5037736;28;21009;-63
2022/12/11 11:12:01;;;;;;;64.13;21.48;;;0.90;99.90;;;;;;5026325;28;20460;-63
2022/12/11 11:14:27;;;;;;;74.75;24.38;;;0.90;99.90;;;;;;5029463;28;20119;-63
2022/12/11 11:16:56;;;;;;;67.90;22.98;;;0.90;99.90;;;;;;5015494;28;20127;-63
2022/12/11 11:19:32;;;;;;;77.93;24.38;;;0.90;99.90;;;;;;5033892;28;20617;-63
2022/12/11 11:22:05;;;;;;;65.45;22.95;;;1.00;99.90;;;;;;5020676;28;20475;-63
2022/12/11 11:24:43;;;;;;;67.15;23.20;;;1.00;99.90;;;;;;5021815;28;20138;-63
2022/12/11 11:27:29;;;;;;;68.70;23.95;;;1.00;99.90;;;;;;5037425;28;20060;-64
2022/12/11 11:29:59;;;;;;;65.70;24.25;;;1.00;99.90;;;;;;5031829;28;20075;-64
2022/12/11 11:32:38;;;;;;;69.85;22.85;;;1.00;99.90;;;;;;5028129;28;20049;-63
2022/12/11 11:35:21;;;;;;;61.80;22.50;;;1.00;99.90;;;;;;5016296;28;20743;-64
2022/12/11 11:37:54;;;;;;;75.40;25.27;;;1.00;99.90;;;;;;5028003;28;20067;-64
2022/12/11 11:40:30;;;;;;;63.88;23.65;;;1.00;99.90;;;;;;5022522;28;20045;-61
2022/12/11 11:43:14;;;;;;;71.53;23.85;;;1.10;99.90;;;;;;5025167;28;20103;-63
2022/12/11 11:45:56;;;;;;;68.05;23.63;;;1.10;99.90;;;;;;5028291;28;20853;-63
2022/12/11 11:48:47;;;;;;;68.25;23.05;;;1.10;99.90;;;;;;5041842;28;20450;-62
2022/12/11 11:51:14;;;;;;;68.25;23.45;;;1.10;99.90;;;;;;5011934;28;20060;-63
2022/12/11 11:53:43;;;;;;;72.15;25.40;;;1.10;99.90;;;;;;5029399;28;20049;-62
2022/12/11 11:56:30;;;;;;;63.97;23.60;;;1.10;99.90;;;;;;5030952;28;20051;-63
2022/12/11 11:59:04;;;;;;;67.18;23.33;;;1.10;99.90;;;;;;5029142;28;20076;-63
2022/12/11 12:01:30;;;;;;;62.85;23.48;;;1.10;99.90;;;;;;5031296;28;20193;-62
2022/12/11 12:03:57;;;;;;;62.05;23.63;;;1.10;99.90;;;;;;5031596;28;20053;-62
2022/12/11 12:07:00;;;;;;;64.25;23.17;;;1.10;99.90;;;;;;5013335;28;20059;-63
2022/12/11 12:10:04;;;;;;;62.65;22.92;;;1.10;99.90;;;;;;5013602;28;20332;-63
2022/12/11 12:12:32;;;;;;;62.15;22.40;;;1.10;99.90;;;;;;5031306;28;20053;-63
2022/12/11 12:15:08;;;;;;;66.50;24.13;;;1.10;99.90;;;;;;5028799;28;20050;-63
2022/12/11 12:17:55;;;;;;;65.07;23.42;;;1.10;99.90;;;;;;5013810;28;20494;-63
2022/12/11 12:20:48;;;;;;;64.70;22.35;;;1.10;99.90;;;;;;5029190;28;20055;-63
2022/12/11 12:23:26;;;;;;;73.18;23.75;;;1.10;99.90;;;;;;5013363;28;20149;-63
2022/12/11 12:26:09;;;;;;;60.42;23.60;;;1.10;99.90;;;;;;5009306;28;20060;-63
2022/12/11 12:29:00;;;;;;;63.38;23.08;;;1.20;99.90;;;;;;5025248;28;20727;-63
2022/12/11 12:31:26;;;;;;;74.88;23.70;;;1.20;99.90;;;;;;5022752;28;20045;-63
2022/12/11 12:34:11;;;;;;;67.40;25.08;;;1.20;99.90;;;;;;5034147;28;20506;-63
2022/12/11 12:36:39;;;;;;;59.15;23.05;;;1.20;99.90;;;;;;5028598;28;20116;-63
2022/12/11 12:39:46;;;;;;;59.78;23.20;;;1.20;99.90;;;;;;5038647;28;20051;-63
2022/12/11 12:42:24;;;;;;;63.28;24.00;;;1.20;99.90;;;;;;4995724;28;20103;-63
2022/12/11 12:44:58;;;;;;;66.63;23.83;;;1.20;99.90;;;;;;5034234;28;20045;-62
2022/12/11 12:47:27;;;;;;;64.25;23.98;;;1.20;99.90;;;;;;5039165;28;20136;-63
2022/12/11 12:49:54;;;;;;;66.47;25.20;;;1.20;99.90;;;;;;5035573;28;20056;-62
2022/12/11 12:52:33;;;;;;;60.72;23.23;;;1.20;99.90;;;;;;5018935;28;20180;-62
2022/12/11 12:55:15;;;;;;;63.55;23.83;;;1.20;99.90;;;;;;5031333;28;20531;-63
2022/12/11 12:57:45;;;;;;;67.57;24.42;;;1.20;99.90;;;;;;5035036;28;20049;-62
2022/12/11 13:00:11;;;;;;;61.67;22.88;;;1.20;99.90;;;;;;5033236;28;20171;-62